sensor_id;sensor_type;location;lat;lon;timestamp;temperature;humidity
22364;DHT22;11349;53.412;-1.328;2024-02-28T00:01:56;5.30;99.90
22364;DHT22;11349;53.412;-1.328;2024-02-28T00:04:21;5.30;99.90
22364;DHT22;11349;53.412;-1.328;2024-02-28T00:06:47;5.30;99.90
22364;DHT22;11349;53.412;-1.328;2024-02-28T00:09:13;5.30;43.50
22364;DHT22;11349;53.412;-1.328;2024-02-28T00:11:46;5.30;17.40
22364;DHT22;11349;53.412;-1.328;2024-02-28T00:14:15;5.20;16.00
22364;DHT22;11349;53.412;-1.328;2024-02-28T00:16:44;5.30;13.90
22364;DHT22;11349;53.412;-1.328;2024-02-28T00:19:11;5.20;1.00
22364;DHT22;11349;53.412;-1.328;2024-02-28T00:21:38;5.40;1.00
22364;DHT22;11349;53.412;-1.328;2024-02-28T00:24:04;5.60;1.00
22364;DHT22;11349;53.412;-1.328;2024-02-28T00:26:30;5.70;42.50
22364;DHT22;11349;53.412;-1.328;2024-02-28T00:28:55;5.80;1.00
22364;DHT22;11349;53.412;-1.328;2024-02-28T00:31:22;5.60;1.00
22364;DHT22;11349;53.412;-1.328;2024-02-28T00:33:48;5.40;99.90
22364;DHT22;11349;53.412;-1.328;2024-02-28T00:36:14;5.30;99.90
22364;DHT22;11349;53.412;-1.328;2024-02-28T00:38:41;5.20;1.00
22364;DHT22;11349;53.412;-1.328;2024-02-28T00:41:07;5.10;1.00
22364;DHT22;11349;53.412;-1.328;2024-02-28T00:43:33;5.10;99.90
22364;DHT22;11349;53.412;-1.328;2024-02-28T00:45:58;5.10;99.90
22364;DHT22;11349;53.412;-1.328;2024-02-28T00:48:25;5.10;99.90
22364;DHT22;11349;53.412;-1.328;2024-02-28T00:50:51;5.10;99.90
22364;DHT22;11349;53.412;-1.328;2024-02-28T00:53:17;5.10;99.90
22364;DHT22;11349;53.412;-1.328;2024-02-28T00:55:43;5.20;99.90
22364;DHT22;11349;53.412;-1.328;2024-02-28T00:58:09;5.20;99.90
22364;DHT22;11349;53.412;-1.328;2024-02-28T01:00:35;5.20;99.90
22364;DHT22;11349;53.412;-1.328;2024-02-28T01:03:01;5.20;99.90
22364;DHT22;11349;53.412;-1.328;2024-02-28T01:05:29;5.10;99.90
22364;DHT22;11349;53.412;-1.328;2024-02-28T01:07:55;5.10;99.90
22364;DHT22;11349;53.412;-1.328;2024-02-28T01:10:22;5.20;99.90
22364;DHT22;11349;53.412;-1.328;2024-02-28T01:12:48;5.20;99.90
22364;DHT22;11349;53.412;-1.328;2024-02-28T01:15:13;5.20;99.90
22364;DHT22;11349;53.412;-1.328;2024-02-28T01:17:39;5.20;99.90
22364;DHT22;11349;53.412;-1.328;2024-02-28T01:20:06;5.20;99.90
22364;DHT22;11349;53.412;-1.328;2024-02-28T01:22:33;5.20;99.90
22364;DHT22;11349;53.412;-1.328;2024-02-28T01:24:59;5.10;99.90
22364;DHT22;11349;53.412;-1.328;2024-02-28T01:27:24;5.20;99.90
22364;DHT22;11349;53.412;-1.328;2024-02-28T01:29:50;5.20;99.90
22364;DHT22;11349;53.412;-1.328;2024-02-28T01:32:16;5.20;99.90
22364;DHT22;11349;53.412;-1.328;2024-02-28T01:34:41;5.10;99.90
22364;DHT22;11349;53.412;-1.328;2024-02-28T01:37:07;5.10;99.90
22364;DHT22;11349;53.412;-1.328;2024-02-28T01:39:33;5.10;99.90
22364;DHT22;11349;53.412;-1.328;2024-02-28T01:41:58;5.10;99.90
22364;DHT22;11349;53.412;-1.328;2024-02-28T01:44:24;5.10;99.90
22364;DHT22;11349;53.412;-1.328;2024-02-28T01:46:51;5.10;99.90
22364;DHT22;11349;53.412;-1.328;2024-02-28T01:49:17;5.00;99.90
22364;DHT22;11349;53.412;-1.328;2024-02-28T01:51:44;5.00;99.90
22364;DHT22;11349;53.412;-1.328;2024-02-28T01:54:12;5.00;99.90
22364;DHT22;11349;53.412;-1.328;2024-02-28T01:56:38;5.10;99.90
22364;DHT22;11349;53.412;-1.328;2024-02-28T01:59:04;5.10;99.90
22364;DHT22;11349;53.412;-1.328;2024-02-28T02:01:30;5.10;99.90
22364;DHT22;11349;53.412;-1.328;2024-02-28T02:03:56;5.10;99.90
22364;DHT22;11349;53.412;-1.328;2024-02-28T02:06:22;5.10;99.90
22364;DHT22;11349;53.412;-1.328;2024-02-28T02:08:48;5.10;99.90
22364;DHT22;11349;53.412;-1.328;2024-02-28T02:11:15;5.20;99.90
22364;DHT22;11349;53.412;-1.328;2024-02-28T02:13:48;5.20;99.90
22364;DHT22;11349;53.412;-1.328;2024-02-28T02:16:14;5.20;99.90
22364;DHT22;11349;53.412;-1.328;2024-02-28T02:18:40;5.20;99.90
22364;DHT22;11349;53.412;-1.328;2024-02-28T02:21:06;5.10;99.90
22364;DHT22;11349;53.412;-1.328;2024-02-28T02:23:36;5.10;99.90
22364;DHT22;11349;53.412;-1.328;2024-02-28T02:26:06;5.10;99.90
22364;DHT22;11349;53.412;-1.328;2024-02-28T02:28:32;5.00;99.90
22364;DHT22;11349;53.412;-1.328;2024-02-28T02:30:58;5.00;99.90
22364;DHT22;11349;53.412;-1.328;2024-02-28T02:33:24;5.00;99.90
22364;DHT22;11349;53.412;-1.328;2024-02-28T02:35:51;5.00;99.90
22364;DHT22;11349;53.412;-1.328;2024-02-28T02:38:17;5.10;99.90
22364;DHT22;11349;53.412;-1.328;2024-02-28T02:40:43;5.10;99.90
22364;DHT22;11349;53.412;-1.328;2024-02-28T02:43:10;5.00;99.90
22364;DHT22;11349;53.412;-1.328;2024-02-28T02:45:35;5.10;99.90
22364;DHT22;11349;53.412;-1.328;2024-02-28T02:48:04;5.10;99.90
22364;DHT22;11349;53.412;-1.328;2024-02-28T02:50:30;5.10;99.90
22364;DHT22;11349;53.412;-1.328;2024-02-28T02:52:55;5.00;99.90
22364;DHT22;11349;53.412;-1.328;2024-02-28T02:55:21;5.10;99.90
22364;DHT22;11349;53.412;-1.328;2024-02-28T02:57:47;5.00;99.90
22364;DHT22;11349;53.412;-1.328;2024-02-28T03:00:12;5.10;99.90
22364;DHT22;11349;53.412;-1.328;2024-02-28T03:02:38;5.00;99.90
22364;DHT22;11349;53.412;-1.328;2024-02-28T03:05:05;5.00;99.90
22364;DHT22;11349;53.412;-1.328;2024-02-28T03:07:31;5.00;99.90
22364;DHT22;11349;53.412;-1.328;2024-02-28T03:09:58;5.00;99.90
22364;DHT22;11349;53.412;-1.328;2024-02-28T03:12:23;5.00;99.90
22364;DHT22;11349;53.412;-1.328;2024-02-28T03:14:49;4.90;99.90
22364;DHT22;11349;53.412;-1.328;2024-02-28T03:17:15;4.90;99.90
22364;DHT22;11349;53.412;-1.328;2024-02-28T03:19:41;4.90;99.90
22364;DHT22;11349;53.412;-1.328;2024-02-28T03:22:07;4.90;99.90
22364;DHT22;11349;53.412;-1.328;2024-02-28T03:24:33;4.80;99.90
22364;DHT22;11349;53.412;-1.328;2024-02-28T03:27:02;4.80;99.90
22364;DHT22;11349;53.412;-1.328;2024-02-28T03:29:27;4.80;99.90
22364;DHT22;11349;53.412;-1.328;2024-02-28T03:31:53;4.80;99.90
22364;DHT22;11349;53.412;-1.328;2024-02-28T03:34:19;4.70;99.90
22364;DHT22;11349;53.412;-1.328;2024-02-28T03:36:45;4.80;99.90
22364;DHT22;11349;53.412;-1.328;2024-02-28T03:39:11;4.70;99.90
22364;DHT22;11349;53.412;-1.328;2024-02-28T03:41:37;4.70;99.90
22364;DHT22;11349;53.412;-1.328;2024-02-28T03:44:03;4.60;99.90
22364;DHT22;11349;53.412;-1.328;2024-02-28T03:46:29;4.60;99.90
22364;DHT22;11349;53.412;-1.328;2024-02-28T03:48:55;4.60;99.90
22364;DHT22;11349;53.412;-1.328;2024-02-28T03:51:21;4.50;99.90
22364;DHT22;11349;53.412;-1.328;2024-02-28T03:53:46;4.60;99.90
22364;DHT22;11349;53.412;-1.328;2024-02-28T03:56:12;4.60;99.90
22364;DHT22;11349;53.412;-1.328;2024-02-28T03:58:39;4.60;99.90
22364;DHT22;11349;53.412;-1.328;2024-02-28T04:01:05;4.60;99.90
22364;DHT22;11349;53.412;-1.328;2024-02-28T04:03:31;4.60;99.90
22364;DHT22;11349;53.412;-1.328;2024-02-28T04:05:57;4.50;99.90
22364;DHT22;11349;53.412;-1.328;2024-02-28T04:08:23;4.50;99.90
22364;DHT22;11349;53.412;-1.328;2024-02-28T04:10:49;4.40;99.90
22364;DHT22;11349;53.412;-1.328;2024-02-28T04:13:16;4.40;99.90
22364;DHT22;11349;53.412;-1.328;2024-02-28T04:15:43;4.30;99.90
22364;DHT22;11349;53.412;-1.328;2024-02-28T04:18:11;4.30;99.90
22364;DHT22;11349;53.412;-1.328;2024-02-28T04:20:36;4.20;99.90
22364;DHT22;11349;53.412;-1.328;2024-02-28T04:23:04;4.30;99.90
22364;DHT22;11349;53.412;-1.328;2024-02-28T04:25:29;4.20;99.90
22364;DHT22;11349;53.412;-1.328;2024-02-28T04:27:55;4.30;99.90
22364;DHT22;11349;53.412;-1.328;2024-02-28T04:30:22;4.20;99.90
22364;DHT22;11349;53.412;-1.328;2024-02-28T04:32:48;4.20;99.90
22364;DHT22;11349;53.412;-1.328;2024-02-28T04:35:14;4.20;99.90
22364;DHT22;11349;53.412;-1.328;2024-02-28T04:37:47;4.20;99.90
22364;DHT22;11349;53.412;-1.328;2024-02-28T04:40:13;4.20;99.90
22364;DHT22;11349;53.412;-1.328;2024-02-28T04:42:39;4.20;99.90
22364;DHT22;11349;53.412;-1.328;2024-02-28T04:45:05;4.20;99.90
22364;DHT22;11349;53.412;-1.328;2024-02-28T04:47:31;4.20;99.90
22364;DHT22;11349;53.412;-1.328;2024-02-28T04:49:57;4.20;99.90
22364;DHT22;11349;53.412;-1.328;2024-02-28T04:52:23;4.20;99.90
22364;DHT22;11349;53.412;-1.328;2024-02-28T04:54:53;4.20;99.90
22364;DHT22;11349;53.412;-1.328;2024-02-28T04:57:19;4.20;99.90
22364;DHT22;11349;53.412;-1.328;2024-02-28T04:59:45;4.20;99.90
22364;DHT22;11349;53.412;-1.328;2024-02-28T05:02:10;4.50;99.90
22364;DHT22;11349;53.412;-1.328;2024-02-28T05:04:36;4.50;99.90
22364;DHT22;11349;53.412;-1.328;2024-02-28T05:07:02;4.50;99.90
22364;DHT22;11349;53.412;-1.328;2024-02-28T05:09:28;4.50;99.90
22364;DHT22;11349;53.412;-1.328;2024-02-28T05:11:54;4.60;99.90
22364;DHT22;11349;53.412;-1.328;2024-02-28T05:14:19;4.60;99.90
22364;DHT22;11349;53.412;-1.328;2024-02-28T05:16:47;4.50;99.90
22364;DHT22;11349;53.412;-1.328;2024-02-28T05:19:13;4.50;99.90
22364;DHT22;11349;53.412;-1.328;2024-02-28T05:21:42;4.50;99.90
22364;DHT22;11349;53.412;-1.328;2024-02-28T05:24:08;4.50;99.90
22364;DHT22;11349;53.412;-1.328;2024-02-28T05:26:35;4.40;99.90
22364;DHT22;11349;53.412;-1.328;2024-02-28T05:29:02;4.40;99.90
22364;DHT22;11349;53.412;-1.328;2024-02-28T05:31:28;4.40;99.90
22364;DHT22;11349;53.412;-1.328;2024-02-28T05:33:56;4.40;99.90
22364;DHT22;11349;53.412;-1.328;2024-02-28T05:36:26;4.40;99.90
22364;DHT22;11349;53.412;-1.328;2024-02-28T05:38:53;4.50;99.90
22364;DHT22;11349;53.412;-1.328;2024-02-28T05:41:19;4.70;99.90
22364;DHT22;11349;53.412;-1.328;2024-02-28T05:43:46;4.70;99.90
22364;DHT22;11349;53.412;-1.328;2024-02-28T05:46:12;4.60;99.90
22364;DHT22;11349;53.412;-1.328;2024-02-28T05:48:40;4.60;99.90
22364;DHT22;11349;53.412;-1.328;2024-02-28T05:51:06;4.50;99.90
22364;DHT22;11349;53.412;-1.328;2024-02-28T05:53:31;4.50;99.90
22364;DHT22;11349;53.412;-1.328;2024-02-28T05:56:07;4.40;99.90
22364;DHT22;11349;53.412;-1.328;2024-02-28T05:58:44;4.40;99.90
22364;DHT22;11349;53.412;-1.328;2024-02-28T06:01:10;4.40;99.90
22364;DHT22;11349;53.412;-1.328;2024-02-28T06:03:37;4.40;99.90
22364;DHT22;11349;53.412;-1.328;2024-02-28T06:06:03;4.40;99.90
22364;DHT22;11349;53.412;-1.328;2024-02-28T06:08:37;4.40;99.90
22364;DHT22;11349;53.412;-1.328;2024-02-28T06:11:03;4.30;99.90
22364;DHT22;11349;53.412;-1.328;2024-02-28T06:13:29;4.30;99.90
22364;DHT22;11349;53.412;-1.328;2024-02-28T06:15:55;4.20;99.90
22364;DHT22;11349;53.412;-1.328;2024-02-28T06:18:22;4.20;99.90
22364;DHT22;11349;53.412;-1.328;2024-02-28T06:20:48;4.20;99.90
22364;DHT22;11349;53.412;-1.328;2024-02-28T06:23:14;4.30;99.90
22364;DHT22;11349;53.412;-1.328;2024-02-28T06:25:40;4.20;99.90
22364;DHT22;11349;53.412;-1.328;2024-02-28T06:28:06;4.10;99.90
22364;DHT22;11349;53.412;-1.328;2024-02-28T06:30:33;4.10;99.90
22364;DHT22;11349;53.412;-1.328;2024-02-28T06:32:59;4.10;99.90
22364;DHT22;11349;53.412;-1.328;2024-02-28T06:35:25;4.10;99.90
22364;DHT22;11349;53.412;-1.328;2024-02-28T06:37:51;4.10;99.90
22364;DHT22;11349;53.412;-1.328;2024-02-28T06:40:17;4.20;99.90
22364;DHT22;11349;53.412;-1.328;2024-02-28T06:42:42;4.20;99.90
22364;DHT22;11349;53.412;-1.328;2024-02-28T06:45:08;4.10;99.90
22364;DHT22;11349;53.412;-1.328;2024-02-28T06:47:34;4.10;99.90
22364;DHT22;11349;53.412;-1.328;2024-02-28T06:50:02;4.10;99.90
22364;DHT22;11349;53.412;-1.328;2024-02-28T06:52:28;4.10;99.90
22364;DHT22;11349;53.412;-1.328;2024-02-28T06:54:53;4.20;99.90
22364;DHT22;11349;53.412;-1.328;2024-02-28T06:57:19;4.20;99.90
22364;DHT22;11349;53.412;-1.328;2024-02-28T06:59:45;4.10;99.90
22364;DHT22;11349;53.412;-1.328;2024-02-28T07:02:11;4.20;99.90
22364;DHT22;11349;53.412;-1.328;2024-02-28T07:04:38;4.20;99.90
22364;DHT22;11349;53.412;-1.328;2024-02-28T07:07:04;4.20;99.90
22364;DHT22;11349;53.412;-1.328;2024-02-28T07:09:31;4.20;99.90
22364;DHT22;11349;53.412;-1.328;2024-02-28T07:11:58;4.20;99.90
22364;DHT22;11349;53.412;-1.328;2024-02-28T07:14:24;4.10;99.90
22364;DHT22;11349;53.412;-1.328;2024-02-28T07:16:50;4.20;99.90
22364;DHT22;11349;53.412;-1.328;2024-02-28T07:19:18;4.20;99.90
22364;DHT22;11349;53.412;-1.328;2024-02-28T07:21:44;4.40;99.90
22364;DHT22;11349;53.412;-1.328;2024-02-28T07:24:10;4.40;99.90
22364;DHT22;11349;53.412;-1.328;2024-02-28T07:26:36;4.40;99.90
22364;DHT22;11349;53.412;-1.328;2024-02-28T07:29:01;4.30;99.90
22364;DHT22;11349;53.412;-1.328;2024-02-28T07:31:27;4.30;99.90
22364;DHT22;11349;53.412;-1.328;2024-02-28T07:33:53;4.30;99.90
22364;DHT22;11349;53.412;-1.328;2024-02-28T07:36:20;4.30;99.90
22364;DHT22;11349;53.412;-1.328;2024-02-28T07:38:45;4.30;99.90
22364;DHT22;11349;53.412;-1.328;2024-02-28T07:41:11;4.30;99.90
22364;DHT22;11349;53.412;-1.328;2024-02-28T07:43:37;4.40;99.90
22364;DHT22;11349;53.412;-1.328;2024-02-28T07:46:09;4.30;99.90
22364;DHT22;11349;53.412;-1.328;2024-02-28T07:48:37;4.30;99.90
22364;DHT22;11349;53.412;-1.328;2024-02-28T07:51:06;4.40;99.90
22364;DHT22;11349;53.412;-1.328;2024-02-28T07:53:32;4.50;99.90
22364;DHT22;11349;53.412;-1.328;2024-02-28T07:55:57;4.50;99.90
22364;DHT22;11349;53.412;-1.328;2024-02-28T07:58:23;4.50;99.90
22364;DHT22;11349;53.412;-1.328;2024-02-28T08:00:50;4.50;99.90
22364;DHT22;11349;53.412;-1.328;2024-02-28T08:03:16;4.50;99.90
22364;DHT22;11349;53.412;-1.328;2024-02-28T08:05:42;4.50;99.90
22364;DHT22;11349;53.412;-1.328;2024-02-28T08:08:09;4.60;99.90
22364;DHT22;11349;53.412;-1.328;2024-02-28T08:10:35;4.70;99.90
22364;DHT22;11349;53.412;-1.328;2024-02-28T08:13:01;5.00;99.90
22364;DHT22;11349;53.412;-1.328;2024-02-28T08:15:27;5.30;37.80
22364;DHT22;11349;53.412;-1.328;2024-02-28T08:17:53;5.60;1.00
22364;DHT22;11349;53.412;-1.328;2024-02-28T08:20:19;5.80;99.90
22364;DHT22;11349;53.412;-1.328;2024-02-28T08:22:45;6.30;99.90
22364;DHT22;11349;53.412;-1.328;2024-02-28T08:25:11;6.70;99.90
22364;DHT22;11349;53.412;-1.328;2024-02-28T08:27:38;7.10;1.00
22364;DHT22;11349;53.412;-1.328;2024-02-28T08:30:04;7.10;99.90
22364;DHT22;11349;53.412;-1.328;2024-02-28T08:32:33;6.70;99.90
22364;DHT22;11349;53.412;-1.328;2024-02-28T08:35:00;6.10;15.30
22364;DHT22;11349;53.412;-1.328;2024-02-28T08:37:26;6.10;1.00
22364;DHT22;11349;53.412;-1.328;2024-02-28T08:39:55;6.30;99.90
22364;DHT22;11349;53.412;-1.328;2024-02-28T08:42:26;6.70;99.90
22364;DHT22;11349;53.412;-1.328;2024-02-28T08:44:52;7.40;99.90
22364;DHT22;11349;53.412;-1.328;2024-02-28T08:47:25;7.20;61.10
22364;DHT22;11349;53.412;-1.328;2024-02-28T08:49:52;7.10;99.90
22364;DHT22;11349;53.412;-1.328;2024-02-28T08:52:19;7.20;1.00
22364;DHT22;11349;53.412;-1.328;2024-02-28T08:54:45;7.50;99.90
22364;DHT22;11349;53.412;-1.328;2024-02-28T08:57:11;7.60;99.90
22364;DHT22;11349;53.412;-1.328;2024-02-28T08:59:37;8.10;99.90
22364;DHT22;11349;53.412;-1.328;2024-02-28T09:02:02;8.00;1.00
22364;DHT22;11349;53.412;-1.328;2024-02-28T09:04:29;8.20;99.90
22364;DHT22;11349;53.412;-1.328;2024-02-28T09:06:55;8.10;1.00
22364;DHT22;11349;53.412;-1.328;2024-02-28T09:09:20;7.60;99.90
22364;DHT22;11349;53.412;-1.328;2024-02-28T09:11:46;8.20;99.90
22364;DHT22;11349;53.412;-1.328;2024-02-28T09:14:12;8.10;99.90
22364;DHT22;11349;53.412;-1.328;2024-02-28T09:16:37;7.70;99.90
22364;DHT22;11349;53.412;-1.328;2024-02-28T09:19:04;7.60;57.10
22364;DHT22;11349;53.412;-1.328;2024-02-28T09:21:30;7.60;1.00
22364;DHT22;11349;53.412;-1.328;2024-02-28T09:23:56;7.50;94.80
22364;DHT22;11349;53.412;-1.328;2024-02-28T09:26:22;7.70;99.90
22364;DHT22;11349;53.412;-1.328;2024-02-28T09:28:48;7.90;99.90
22364;DHT22;11349;53.412;-1.328;2024-02-28T09:31:13;8.20;99.90
22364;DHT22;11349;53.412;-1.328;2024-02-28T09:33:41;8.70;1.00
22364;DHT22;11349;53.412;-1.328;2024-02-28T09:36:07;8.70;1.00
22364;DHT22;11349;53.412;-1.328;2024-02-28T09:38:32;8.70;99.90
22364;DHT22;11349;53.412;-1.328;2024-02-28T09:41:01;9.10;99.90
22364;DHT22;11349;53.412;-1.328;2024-02-28T09:43:31;9.20;1.00
22364;DHT22;11349;53.412;-1.328;2024-02-28T09:46:05;8.90;99.90
22364;DHT22;11349;53.412;-1.328;2024-02-28T09:48:31;8.60;99.90
22364;DHT22;11349;53.412;-1.328;2024-02-28T09:50:57;8.70;99.90
22364;DHT22;11349;53.412;-1.328;2024-02-28T09:53:24;8.70;99.90
22364;DHT22;11349;53.412;-1.328;2024-02-28T09:55:50;8.70;1.00
22364;DHT22;11349;53.412;-1.328;2024-02-28T09:58:18;8.80;1.00
22364;DHT22;11349;53.412;-1.328;2024-02-28T10:00:45;8.80;89.30
22364;DHT22;11349;53.412;-1.328;2024-02-28T10:03:18;8.40;1.00
22364;DHT22;11349;53.412;-1.328;2024-02-28T10:05:48;8.60;15.70
22364;DHT22;11349;53.412;-1.328;2024-02-28T10:08:14;9.00;1.00
22364;DHT22;11349;53.412;-1.328;2024-02-28T10:10:48;8.50;1.00
22364;DHT22;11349;53.412;-1.328;2024-02-28T10:13:18;8.40;1.00
22364;DHT22;11349;53.412;-1.328;2024-02-28T10:15:44;7.70;99.90
22364;DHT22;11349;53.412;-1.328;2024-02-28T10:18:10;7.70;7.90
22364;DHT22;11349;53.412;-1.328;2024-02-28T10:20:36;7.30;99.90
22364;DHT22;11349;53.412;-1.328;2024-02-28T10:23:05;7.10;1.00
22364;DHT22;11349;53.412;-1.328;2024-02-28T10:25:32;7.10;99.90
22364;DHT22;11349;53.412;-1.328;2024-02-28T10:28:01;7.30;83.60
22364;DHT22;11349;53.412;-1.328;2024-02-28T10:30:27;7.70;99.90
22364;DHT22;11349;53.412;-1.328;2024-02-28T10:32:53;7.80;1.00
22364;DHT22;11349;53.412;-1.328;2024-02-28T10:35:19;8.00;99.90
22364;DHT22;11349;53.412;-1.328;2024-02-28T10:37:46;8.20;99.90
22364;DHT22;11349;53.412;-1.328;2024-02-28T10:40:13;8.50;28.70
22364;DHT22;11349;53.412;-1.328;2024-02-28T10:42:42;9.10;99.90
22364;DHT22;11349;53.412;-1.328;2024-02-28T10:45:12;9.80;89.10
22364;DHT22;11349;53.412;-1.328;2024-02-28T10:47:38;10.00;1.00
22364;DHT22;11349;53.412;-1.328;2024-02-28T10:50:05;9.80;99.90
22364;DHT22;11349;53.412;-1.328;2024-02-28T10:52:33;10.10;1.00
22364;DHT22;11349;53.412;-1.328;2024-02-28T10:54:59;10.00;1.00
22364;DHT22;11349;53.412;-1.328;2024-02-28T10:57:29;9.80;99.90
22364;DHT22;11349;53.412;-1.328;2024-02-28T10:59:57;10.10;99.90
22364;DHT22;11349;53.412;-1.328;2024-02-28T11:02:23;10.20;10.90
22364;DHT22;11349;53.412;-1.328;2024-02-28T11:04:53;10.40;1.00
22364;DHT22;11349;53.412;-1.328;2024-02-28T11:07:21;10.30;99.90
22364;DHT22;11349;53.412;-1.328;2024-02-28T11:09:48;10.10;26.60
22364;DHT22;11349;53.412;-1.328;2024-02-28T11:12:28;10.50;99.90
22364;DHT22;11349;53.412;-1.328;2024-02-28T11:15:01;10.80;99.90
22364;DHT22;11349;53.412;-1.328;2024-02-28T11:17:29;11.10;99.90
22364;DHT22;11349;53.412;-1.328;2024-02-28T11:19:56;11.10;60.40
22364;DHT22;11349;53.412;-1.328;2024-02-28T11:22:22;11.10;1.00
22364;DHT22;11349;53.412;-1.328;2024-02-28T11:24:48;11.30;1.00
22364;DHT22;11349;53.412;-1.328;2024-02-28T11:27:15;11.50;1.00
22364;DHT22;11349;53.412;-1.328;2024-02-28T11:29:41;11.60;99.90
22364;DHT22;11349;53.412;-1.328;2024-02-28T11:32:07;11.80;99.90
22364;DHT22;11349;53.412;-1.328;2024-02-28T11:34:34;11.90;99.90
22364;DHT22;11349;53.412;-1.328;2024-02-28T11:37:00;11.80;99.90
22364;DHT22;11349;53.412;-1.328;2024-02-28T11:39:26;11.60;99.90
22364;DHT22;11349;53.412;-1.328;2024-02-28T11:41:52;11.70;1.00
22364;DHT22;11349;53.412;-1.328;2024-02-28T11:44:19;11.90;99.90
22364;DHT22;11349;53.412;-1.328;2024-02-28T11:46:45;11.80;99.90
22364;DHT22;11349;53.412;-1.328;2024-02-28T11:49:15;11.70;99.90
22364;DHT22;11349;53.412;-1.328;2024-02-28T11:51:44;11.70;99.90
22364;DHT22;11349;53.412;-1.328;2024-02-28T11:54:11;11.80;99.90
22364;DHT22;11349;53.412;-1.328;2024-02-28T11:56:40;11.50;1.00
22364;DHT22;11349;53.412;-1.328;2024-02-28T11:59:06;11.20;99.90
22364;DHT22;11349;53.412;-1.328;2024-02-28T12:01:38;10.90;90.00
22364;DHT22;11349;53.412;-1.328;2024-02-28T12:04:04;11.30;99.90
22364;DHT22;11349;53.412;-1.328;2024-02-28T12:06:37;11.30;21.50
22364;DHT22;11349;53.412;-1.328;2024-02-28T12:09:04;11.40;1.00
22364;DHT22;11349;53.412;-1.328;2024-02-28T12:11:30;11.00;1.00
22364;DHT22;11349;53.412;-1.328;2024-02-28T12:13:57;10.50;99.90
22364;DHT22;11349;53.412;-1.328;2024-02-28T12:16:27;10.30;1.00
22364;DHT22;11349;53.412;-1.328;2024-02-28T12:18:53;9.90;1.00
22364;DHT22;11349;53.412;-1.328;2024-02-28T12:21:19;10.00;1.00
22364;DHT22;11349;53.412;-1.328;2024-02-28T12:23:46;9.90;99.90
22364;DHT22;11349;53.412;-1.328;2024-02-28T12:26:13;9.70;7.40
22364;DHT22;11349;53.412;-1.328;2024-02-28T12:28:39;9.40;99.90
22364;DHT22;11349;53.412;-1.328;2024-02-28T12:31:05;9.80;99.90
22364;DHT22;11349;53.412;-1.328;2024-02-28T12:33:34;10.00;99.90
22364;DHT22;11349;53.412;-1.328;2024-02-28T12:35:59;9.80;99.90
22364;DHT22;11349;53.412;-1.328;2024-02-28T12:38:29;9.80;99.90
22364;DHT22;11349;53.412;-1.328;2024-02-28T12:40:54;9.70;99.90
22364;DHT22;11349;53.412;-1.328;2024-02-28T12:43:20;9.80;99.90
22364;DHT22;11349;53.412;-1.328;2024-02-28T12:45:46;9.70;99.90
22364;DHT22;11349;53.412;-1.328;2024-02-28T12:48:11;9.60;1.00
22364;DHT22;11349;53.412;-1.328;2024-02-28T12:50:37;9.70;99.90
22364;DHT22;11349;53.412;-1.328;2024-02-28T12:53:03;10.00;99.90
22364;DHT22;11349;53.412;-1.328;2024-02-28T12:55:29;10.60;99.90
22364;DHT22;11349;53.412;-1.328;2024-02-28T12:57:55;10.60;1.00
22364;DHT22;11349;53.412;-1.328;2024-02-28T13:00:20;10.50;44.30
22364;DHT22;11349;53.412;-1.328;2024-02-28T13:02:47;10.50;99.90
22364;DHT22;11349;53.412;-1.328;2024-02-28T13:05:12;10.70;1.00
22364;DHT22;11349;53.412;-1.328;2024-02-28T13:07:39;11.00;63.10
22364;DHT22;11349;53.412;-1.328;2024-02-28T13:10:05;12.00;99.90
22364;DHT22;11349;53.412;-1.328;2024-02-28T13:12:32;12.10;99.90
22364;DHT22;11349;53.412;-1.328;2024-02-28T13:14:58;12.10;50.30
22364;DHT22;11349;53.412;-1.328;2024-02-28T13:17:24;12.30;1.00
22364;DHT22;11349;53.412;-1.328;2024-02-28T13:19:51;12.40;99.90
22364;DHT22;11349;53.412;-1.328;2024-02-28T13:22:17;12.50;99.90
22364;DHT22;11349;53.412;-1.328;2024-02-28T13:24:43;12.50;99.90
22364;DHT22;11349;53.412;-1.328;2024-02-28T13:27:11;12.50;1.00
22364;DHT22;11349;53.412;-1.328;2024-02-28T13:29:37;12.40;99.90
22364;DHT22;11349;53.412;-1.328;2024-02-28T13:32:03;12.70;64.40
22364;DHT22;11349;53.412;-1.328;2024-02-28T13:34:29;12.80;1.00
22364;DHT22;11349;53.412;-1.328;2024-02-28T13:36:55;12.80;1.00
22364;DHT22;11349;53.412;-1.328;2024-02-28T13:39:21;12.80;1.00
22364;DHT22;11349;53.412;-1.328;2024-02-28T13:41:52;13.00;99.90
22364;DHT22;11349;53.412;-1.328;2024-02-28T13:44:18;13.10;99.90
22364;DHT22;11349;53.412;-1.328;2024-02-28T13:46:47;13.20;99.90
22364;DHT22;11349;53.412;-1.328;2024-02-28T13:49:13;13.00;99.90
22364;DHT22;11349;53.412;-1.328;2024-02-28T13:51:42;13.20;99.90
22364;DHT22;11349;53.412;-1.328;2024-02-28T13:54:08;13.20;99.90
22364;DHT22;11349;53.412;-1.328;2024-02-28T13:56:34;13.20;99.90
22364;DHT22;11349;53.412;-1.328;2024-02-28T13:59:00;13.20;99.90
22364;DHT22;11349;53.412;-1.328;2024-02-28T14:01:25;13.30;99.90
22364;DHT22;11349;53.412;-1.328;2024-02-28T14:03:51;13.20;99.90
22364;DHT22;11349;53.412;-1.328;2024-02-28T14:06:17;13.40;41.20
22364;DHT22;11349;53.412;-1.328;2024-02-28T14:08:43;13.10;99.90
22364;DHT22;11349;53.412;-1.328;2024-02-28T14:11:08;13.00;99.90
22364;DHT22;11349;53.412;-1.328;2024-02-28T14:13:34;13.20;99.90
22364;DHT22;11349;53.412;-1.328;2024-02-28T14:16:00;13.20;99.90
22364;DHT22;11349;53.412;-1.328;2024-02-28T14:18:26;13.00;99.90
22364;DHT22;11349;53.412;-1.328;2024-02-28T14:20:52;13.00;99.90
22364;DHT22;11349;53.412;-1.328;2024-02-28T14:23:18;13.20;99.90
22364;DHT22;11349;53.412;-1.328;2024-02-28T14:25:43;13.10;99.90
22364;DHT22;11349;53.412;-1.328;2024-02-28T14:28:09;13.40;1.00
22364;DHT22;11349;53.412;-1.328;2024-02-28T14:30:35;13.20;99.90
22364;DHT22;11349;53.412;-1.328;2024-02-28T14:33:01;13.50;1.00
22364;DHT22;11349;53.412;-1.328;2024-02-28T14:35:26;13.30;1.00
22364;DHT22;11349;53.412;-1.328;2024-02-28T14:37:52;13.30;99.90
22364;DHT22;11349;53.412;-1.328;2024-02-28T14:40:18;13.40;1.00
22364;DHT22;11349;53.412;-1.328;2024-02-28T14:42:44;13.50;1.00
22364;DHT22;11349;53.412;-1.328;2024-02-28T14:45:13;13.30;10.30
22364;DHT22;11349;53.412;-1.328;2024-02-28T14:47:43;13.60;1.00
22364;DHT22;11349;53.412;-1.328;2024-02-28T14:50:10;13.20;99.90
22364;DHT22;11349;53.412;-1.328;2024-02-28T14:52:37;13.30;93.00
22364;DHT22;11349;53.412;-1.328;2024-02-28T14:55:04;12.90;1.00
22364;DHT22;11349;53.412;-1.328;2024-02-28T14:57:30;12.90;1.00
22364;DHT22;11349;53.412;-1.328;2024-02-28T14:59:57;13.30;99.90
22364;DHT22;11349;53.412;-1.328;2024-02-28T15:02:22;13.20;99.90
22364;DHT22;11349;53.412;-1.328;2024-02-28T15:04:48;12.60;1.00
22364;DHT22;11349;53.412;-1.328;2024-02-28T15:07:15;12.80;99.90
22364;DHT22;11349;53.412;-1.328;2024-02-28T15:09:41;12.90;99.90
22364;DHT22;11349;53.412;-1.328;2024-02-28T15:12:07;12.30;99.90
22364;DHT22;11349;53.412;-1.328;2024-02-28T15:14:33;12.40;1.00
22364;DHT22;11349;53.412;-1.328;2024-02-28T15:16:59;12.90;4.90
22364;DHT22;11349;53.412;-1.328;2024-02-28T15:19:25;13.00;1.00
22364;DHT22;11349;53.412;-1.328;2024-02-28T15:21:55;13.50;99.90
22364;DHT22;11349;53.412;-1.328;2024-02-28T15:24:22;13.40;1.00
22364;DHT22;11349;53.412;-1.328;2024-02-28T15:26:47;13.40;99.90